Airfield :
LOGIN :

Register | Disclaimer

   EN    FR    IT 

 










Legend :    VFR   Marginal VFR   IFR   Intensive IFR   Very Intensive IFR
Visi :
Ceiling :
>= 8 km
>= 3000ft
5 to 8 km
1000 to 3000 ft
1500m to 5 km
500 to 1000 ft
800 to 1500m
200 to 500 ft
< 800m
< 200 ft
Symbols :   Thunderstorms  Fog  Heavy snow  Heavy precipitations  Wind > 20 kt
SIGMETs :     Misc.  Thunderstorms  Icing  Turbulence  Mountain Waves  Volcanic Ashes






- Airport Elevation : 681 ft
- IATA code : LBA


EGNM - Leeds Bradford

CURRENT METAR :
  • 251120Z 28007KT 9999 FEW006 BKN035 07/05 Q1011

EXPIRED METARs :
  • 251050Z 28008KT 9999 -RA FEW008 BKN030 06/05 Q1011
  • 251020Z 28009KT 9999 -RA BKN028 06/05 Q1010
  • 250950Z 29010KT 9999 -RA FEW008 BKN037 06/05 Q1010
  • 250920Z 28011KT 9999 -SHRA FEW006 BKN034 06/05 Q1010
  • 250850Z 28008KT 9999 FEW008 BKN030 06/05 Q1009

TAF TAF EGNM
Valid from the 25 at 12:00 until the 26 at 12:00 UTC


251055Z 2512/2612 29008KT 9999 SCT015
TEMPO 2512/2513 8000 -RA BKN008
TEMPO 2520/2610 6000
PROB30
TEMPO 2521/2601 3000 BR
PROB30 2601/2608 0300 FG VV///
PROB30
TEMPO 2608/2609 3000 BR
ATIS : +44 113 250 9696 (x2489)



MET'MAP, your aeronautical weather chart ! - Copyright ORBIFLY December 2007 - Disclaimer

ORBIFLY MET'MAP TEAM :

Programming & Development : Alexandra Zaïnal
Concept & original design : Baudouin d'Aumeries
Assistance for programming : Marc-Olivier Méhu
Technical & hardware support : Manuel Goepfert

Contact : metmap@orbifly.com




SOURCES & CREDITS :

   NOAA